< < Back
Terminal Aerodrome Forecast


Current Version              Previous Versions:   1  2  3  4  5  6  7  8  9  

Terminal Aerodrome Forecast

989
FTUS44 KOHX 221100
TAFCSV
TAF
KCSV 221140Z 2212/2312 03008KT P6SM SKC
      TEMPO 2212/2213 BKN015=

Latest METAR

734
SAUS70 KWBC 230200 RRE
MTRCSV
METAR KCSV 230153Z AUTO 04006KT 10SM CLR 07/03 A3022 RMK AO2 SLP237
T00670028


USA.gov is the U.S. government's official web portal to all federal, state and local government web resources and services.